Time;durP1;ratioP1;P1;durP2;ratioP2;P2;SDS_P1;SDS_P2;PMS_P1;PMS_P2;Temp;Humidity;BMP_temperature;BMP_pressure;BME280_temperature;BME280_humidity;BME280_pressure;Samples;Min_cycle;Max_cycle;Signal;HPM_P1;HPM_P2
2022/08/02 00:00:27;;;;;;;1.20;0.73;;;14.40;99.90;;;;;;5051794;28;20194;-85
2022/08/02 00:02:58;;;;;;;1.70;0.73;;;14.60;99.90;;;;;;5055769;28;20606;-82
2022/08/02 00:05:29;;;;;;;2.85;0.80;;;14.60;99.90;;;;;;5052465;28;20201;-81
2022/08/02 00:07:59;;;;;;;2.13;0.85;;;14.70;99.90;;;;;;5059874;28;20215;-81
2022/08/02 00:10:32;;;;;;;2.83;0.90;;;14.80;99.90;;;;;;5060555;28;20205;-83
2022/08/02 00:13:05;;;;;;;2.42;0.88;;;14.90;99.90;;;;;;5064724;28;20209;-84
2022/08/02 00:15:36;;;;;;;9.10;1.10;;;14.90;99.90;;;;;;5063569;28;20200;-82
2022/08/02 00:18:07;;;;;;;2.78;0.90;;;15.00;99.90;;;;;;5058412;28;20196;-82
2022/08/02 00:20:37;;;;;;;3.90;0.90;;;15.10;99.90;;;;;;5063268;28;20655;-83
2022/08/02 00:23:09;;;;;;;3.83;0.90;;;15.20;99.90;;;;;;5064507;28;20189;-88
2022/08/02 00:25:39;;;;;;;5.40;1.02;;;15.20;99.90;;;;;;5075170;28;20567;-82
2022/08/02 00:28:15;;;;;;;2.83;0.70;;;15.30;99.90;;;;;;5068066;28;20220;-83
2022/08/02 00:30:45;;;;;;;2.20;0.65;;;15.40;99.90;;;;;;5074257;28;20263;-84
2022/08/02 00:33:16;;;;;;;1.75;0.60;;;15.50;99.90;;;;;;5086575;28;20192;-85
2022/08/02 00:35:48;;;;;;;2.05;0.77;;;15.60;99.90;;;;;;5073306;28;20607;-86
2022/08/02 00:38:18;;;;;;;2.90;0.80;;;15.60;99.90;;;;;;5075431;28;20259;-84
2022/08/02 00:40:51;;;;;;;2.03;0.52;;;15.70;99.90;;;;;;5095408;28;20185;-86
2022/08/02 00:43:24;;;;;;;3.67;0.50;;;15.70;99.90;;;;;;5094439;28;20192;-83
2022/08/02 00:45:54;;;;;;;1.40;0.50;;;15.80;99.90;;;;;;5073844;28;20234;-83
2022/08/02 00:48:25;;;;;;;2.08;0.70;;;15.80;99.90;;;;;;5057520;28;20198;-80
2022/08/02 00:50:56;;;;;;;2.22;0.57;;;15.90;99.90;;;;;;5063303;28;20194;-80
2022/08/02 00:53:27;;;;;;;3.90;0.57;;;15.90;99.90;;;;;;5060279;28;20180;-86
2022/08/02 00:55:57;;;;;;;1.83;0.75;;;16.00;99.90;;;;;;5084508;28;20197;-82
2022/08/02 00:58:30;;;;;;;1.20;0.60;;;16.00;99.90;;;;;;5083593;28;20237;-84
2022/08/02 01:01:03;;;;;;;1.52;0.60;;;16.10;99.90;;;;;;5085096;28;20706;-83
2022/08/02 01:03:33;;;;;;;0.73;0.40;;;16.20;99.90;;;;;;5085953;28;20271;-83
2022/08/02 01:06:04;;;;;;;1.13;0.50;;;16.30;99.90;;;;;;5081888;28;20643;-85
2022/08/02 01:08:35;;;;;;;2.10;0.90;;;16.40;99.90;;;;;;5083730;28;20231;-83
2022/08/02 01:11:06;;;;;;;3.65;0.68;;;16.50;99.90;;;;;;5084634;28;20204;-85
2022/08/02 01:13:39;;;;;;;2.03;0.80;;;16.60;99.90;;;;;;5084984;28;20209;-85
2022/08/02 01:16:17;;;;;;;5.78;1.83;;;16.60;99.90;;;;;;5080705;28;20208;-85
2022/08/02 01:18:55;;;;;;;1.58;0.60;;;16.70;99.90;;;;;;5075237;28;20193;-84
2022/08/02 01:21:41;;;;;;;1.75;0.70;;;16.60;99.90;;;;;;5083301;28;20205;-85
2022/08/02 01:24:33;;;;;;;1.88;0.70;;;16.70;99.90;;;;;;5078183;28;20185;-85
2022/08/02 01:27:19;;;;;;;0.95;0.70;;;16.70;99.90;;;;;;5082406;28;20444;-83
2022/08/02 01:29:57;;;;;;;4.53;0.52;;;16.80;99.90;;;;;;5081395;28;20193;-85
2022/08/02 01:32:33;;;;;;;1.77;0.70;;;16.90;99.90;;;;;;5083951;28;20196;-86
2022/08/02 01:35:08;;;;;;;2.05;0.65;;;16.90;99.90;;;;;;5082209;28;20237;-85
2022/08/02 01:37:41;;;;;;;4.35;1.20;;;17.00;99.90;;;;;;5104021;22;20208;-85
2022/08/02 01:40:14;;;;;;;5.80;0.82;;;17.10;99.90;;;;;;5024296;28;20233;-85
2022/08/02 01:42:49;;;;;;;2.45;0.60;;;17.20;99.90;;;;;;5031789;28;20586;-88
2022/08/02 01:45:23;;;;;;;3.30;0.70;;;17.20;99.90;;;;;;5033616;28;20190;-88
2022/08/02 01:47:58;;;;;;;0.77;0.52;;;17.20;99.90;;;;;;5033843;28;20186;-87
2022/08/02 01:50:32;;;;;;;2.47;0.60;;;17.20;99.90;;;;;;5034666;28;20388;-88
2022/08/02 01:53:08;;;;;;;2.45;0.47;;;17.20;99.90;;;;;;5035007;28;20289;-89
2022/08/02 01:55:42;;;;;;;2.05;0.45;;;17.20;99.90;;;;;;5036478;28;20193;-86
2022/08/02 01:58:13;;;;;;;1.60;0.47;;;17.30;99.90;;;;;;5031191;28;20528;-85
2022/08/02 02:00:47;;;;;;;0.55;0.43;;;17.30;99.90;;;;;;5036640;28;20191;-85
2022/08/02 02:03:23;;;;;;;1.23;0.50;;;17.30;99.90;;;;;;5036693;28;20599;-84
2022/08/02 02:05:55;;;;;;;1.08;0.70;;;17.40;99.90;;;;;;5033350;28;20190;-87
2022/08/02 02:08:32;;;;;;;0.77;0.55;;;17.40;99.90;;;;;;5032484;28;20656;-86
2022/08/02 02:11:04;;;;;;;1.23;0.60;;;17.50;99.90;;;;;;5032820;28;20204;-86
2022/08/02 02:13:36;;;;;;;3.40;0.70;;;17.50;99.90;;;;;;5032031;28;20198;-89
2022/08/02 02:16:13;;;;;;;2.30;0.50;;;17.60;99.90;;;;;;5033158;28;20653;-89
2022/08/02 02:18:49;;;;;;;2.28;0.60;;;17.60;99.90;;;;;;5030519;28;20286;-88
2022/08/02 02:21:20;;;;;;;1.27;0.52;;;17.60;99.90;;;;;;5032750;28;20193;-87
2022/08/02 02:23:51;;;;;;;1.95;0.68;;;17.60;99.90;;;;;;5033335;28;20198;-83
2022/08/02 02:26:23;;;;;;;2.95;0.60;;;17.70;99.90;;;;;;5032333;28;20194;-88
2022/08/02 02:28:56;;;;;;;4.43;1.00;;;17.70;99.90;;;;;;5033270;28;20198;-87
2022/08/02 02:31:31;;;;;;;2.90;0.80;;;17.60;99.90;;;;;;5032589;28;20281;-86
2022/08/02 02:34:11;;;;;;;1.25;0.60;;;17.60;99.90;;;;;;5033703;28;20190;-88
2022/08/02 02:36:50;;;;;;;4.50;1.27;;;17.80;99.90;;;;;;5033046;28;20198;-89
2022/08/02 02:39:30;;;;;;;4.53;0.90;;;17.90;99.90;;;;;;5032313;28;20254;-92
2022/08/02 02:42:20;;;;;;;1.85;0.60;;;17.90;99.90;;;;;;5034441;28;20217;-88
2022/08/02 02:47:41;;;;;;;3.42;0.80;;;17.90;99.90;;;;;;5030737;28;20578;-86
2022/08/02 02:50:17;;;;;;;1.75;0.68;;;17.80;99.90;;;;;;5030362;28;20189;-82
2022/08/02 02:52:50;;;;;;;1.52;0.50;;;17.90;99.90;;;;;;5033599;28;20797;-86
2022/08/02 02:55:25;;;;;;;1.27;0.65;;;17.90;99.90;;;;;;5031282;28;20201;-88
2022/08/02 02:58:08;;;;;;;2.67;0.73;;;17.90;99.90;;;;;;5032794;28;20198;-94
2022/08/02 03:03:28;;;;;;;1.17;0.50;;;18.00;99.90;;;;;;5023829;28;20221;-86
2022/08/02 03:05:59;;;;;;;0.63;0.47;;;17.90;99.90;;;;;;5034082;28;20206;-84
2022/08/02 03:08:29;;;;;;;1.02;0.47;;;17.90;99.90;;;;;;5033390;28;20187;-85
2022/08/02 03:11:01;;;;;;;1.95;0.70;;;18.00;99.90;;;;;;5037136;28;20633;-85
2022/08/02 03:13:35;;;;;;;2.38;0.50;;;18.10;99.90;;;;;;5034917;28;20191;-88
2022/08/02 03:16:06;;;;;;;0.88;0.47;;;18.20;99.90;;;;;;5022162;28;20194;-86
2022/08/02 03:18:39;;;;;;;2.80;0.40;;;18.20;99.90;;;;;;5029978;28;20190;-87
2022/08/02 03:21:11;;;;;;;2.78;0.40;;;18.20;99.90;;;;;;5028985;28;20198;-83
2022/08/02 03:23:42;;;;;;;0.95;0.40;;;18.20;99.90;;;;;;5031159;28;20254;-86
2022/08/02 03:26:13;;;;;;;3.67;0.65;;;18.20;99.90;;;;;;5030374;28;20197;-86
2022/08/02 03:28:44;;;;;;;2.15;0.40;;;18.20;99.90;;;;;;5027750;28;20198;-87
2022/08/02 03:31:15;;;;;;;3.88;0.50;;;18.10;99.90;;;;;;5019315;28;20194;-92
2022/08/02 03:33:50;;;;;;;0.30;0.30;;;18.10;99.90;;;;;;5034938;28;20206;-85
2022/08/02 03:36:22;;;;;;;0.88;0.50;;;18.30;99.90;;;;;;5034598;28;20194;-88
2022/08/02 03:38:54;;;;;;;2.65;0.40;;;18.20;99.90;;;;;;5033724;28;20241;-89
2022/08/02 03:41:26;;;;;;;2.72;0.30;;;18.20;99.90;;;;;;5037267;28;20198;-91
2022/08/02 03:43:58;;;;;;;1.67;0.50;;;18.20;99.90;;;;;;5015579;28;20219;-87
2022/08/02 03:46:29;;;;;;;1.17;0.30;;;18.30;99.90;;;;;;5038688;28;20194;-88
2022/08/02 03:49:08;;;;;;;1.02;0.43;;;18.30;99.90;;;;;;5035747;28;20225;-88
2022/08/02 03:51:40;;;;;;;2.42;0.60;;;18.40;99.90;;;;;;5040255;28;20209;-86
2022/08/02 03:54:11;;;;;;;0.98;0.30;;;18.30;99.90;;;;;;5033178;28;20210;-88
2022/08/02 03:56:42;;;;;;;1.33;0.32;;;18.40;99.90;;;;;;5035000;28;20221;-84
2022/08/02 03:59:14;;;;;;;0.73;0.25;;;18.40;99.90;;;;;;5036309;28;20671;-88
2022/08/02 04:01:45;;;;;;;1.00;0.40;;;18.50;99.90;;;;;;5039277;28;20266;-89
2022/08/02 04:04:18;;;;;;;0.40;0.30;;;18.60;99.90;;;;;;5033209;28;20205;-87
2022/08/02 04:06:51;;;;;;;1.55;0.40;;;18.60;99.90;;;;;;5037221;28;20194;-89
2022/08/02 04:09:22;;;;;;;1.50;0.40;;;18.50;99.90;;;;;;5021641;28;20222;-87
2022/08/02 04:11:51;;;;;;;0.80;0.55;;;18.50;99.90;;;;;;5031415;28;20204;-91
2022/08/02 04:14:22;;;;;;;1.10;0.40;;;18.60;99.90;;;;;;5036630;28;20210;-86
2022/08/02 04:16:58;;;;;;;1.48;0.45;;;18.60;99.90;;;;;;5028253;28;20202;-86
2022/08/02 04:19:34;;;;;;;0.82;0.40;;;18.60;99.90;;;;;;5042931;28;20669;-87
2022/08/02 04:22:08;;;;;;;1.98;0.45;;;18.60;99.90;;;;;;5049783;28;20214;-88
2022/08/02 04:24:43;;;;;;;1.83;0.50;;;18.60;99.90;;;;;;5047343;28;20208;-89
2022/08/02 04:27:14;;;;;;;0.40;0.38;;;18.60;99.90;;;;;;5043751;28;20198;-89
2022/08/02 04:29:45;;;;;;;0.52;0.20;;;18.60;99.90;;;;;;5045611;28;20203;-91
2022/08/02 04:32:16;;;;;;;3.70;0.50;;;18.60;99.90;;;;;;5047087;28;20200;-88
2022/08/02 04:34:49;;;;;;;0.50;0.40;;;18.60;99.90;;;;;;5042897;28;20555;-84
2022/08/02 04:37:20;;;;;;;0.73;0.30;;;18.60;99.90;;;;;;5034964;28;20218;-88
2022/08/02 04:39:51;;;;;;;1.30;0.50;;;18.70;99.90;;;;;;5038572;28;20226;-87
2022/08/02 04:42:27;;;;;;;1.83;0.95;;;18.70;99.90;;;;;;5037554;28;20229;-85
2022/08/02 04:45:00;;;;;;;3.42;0.70;;;18.70;99.90;;;;;;5033534;28;20201;-86
2022/08/02 04:47:34;;;;;;;1.25;0.85;;;18.70;99.90;;;;;;5036201;28;20198;-87
2022/08/02 04:50:07;;;;;;;2.80;0.50;;;18.70;99.90;;;;;;5041029;28;20213;-86
2022/08/02 04:52:38;;;;;;;0.90;0.40;;;18.80;99.90;;;;;;5031628;28;20207;-90
2022/08/02 04:55:09;;;;;;;1.40;0.50;;;18.80;99.90;;;;;;5033757;28;20190;-87
2022/08/02 04:57:58;;;;;;;0.60;0.47;;;18.80;99.90;;;;;;5039524;28;20186;-83
2022/08/02 05:00:31;;;;;;;3.45;0.52;;;18.70;99.90;;;;;;5038309;28;20570;-85
2022/08/02 05:03:03;;;;;;;1.67;0.60;;;18.70;99.90;;;;;;5038200;28;20218;-87
2022/08/02 05:05:35;;;;;;;2.25;0.50;;;18.60;99.90;;;;;;5039329;28;20656;-85
2022/08/02 05:08:06;;;;;;;3.42;0.52;;;18.60;99.90;;;;;;5036796;28;20531;-91
2022/08/02 05:10:40;;;;;;;2.05;0.35;;;18.50;99.90;;;;;;5042288;28;20199;-84
2022/08/02 05:13:10;;;;;;;0.90;0.50;;;18.50;99.90;;;;;;5040301;28;20715;-88
2022/08/02 05:15:41;;;;;;;3.03;0.73;;;18.40;99.90;;;;;;5040697;28;20195;-92
2022/08/02 05:18:13;;;;;;;1.08;0.30;;;18.40;99.90;;;;;;5046420;28;20222;-89
2022/08/02 05:20:46;;;;;;;0.75;0.30;;;18.40;99.90;;;;;;5040539;28;20190;-84
2022/08/02 05:23:17;;;;;;;4.53;0.43;;;18.50;99.90;;;;;;5040120;28;20214;-84
2022/08/02 05:25:48;;;;;;;0.32;0.20;;;18.40;99.90;;;;;;5037559;28;20186;-84
2022/08/02 05:28:22;;;;;;;1.45;0.40;;;18.30;99.90;;;;;;5042462;28;20198;-81
2022/08/02 05:30:55;;;;;;;1.55;0.40;;;18.30;99.90;;;;;;5046211;28;20194;-86
2022/08/02 05:33:26;;;;;;;1.92;0.40;;;18.20;99.90;;;;;;5040753;28;20276;-84
2022/08/02 05:35:59;;;;;;;1.55;0.30;;;18.40;99.90;;;;;;5035664;28;20191;-84
2022/08/02 05:38:31;;;;;;;2.38;0.45;;;18.30;99.90;;;;;;5033157;28;20265;-88
2022/08/02 05:41:01;;;;;;;2.20;0.40;;;18.30;99.90;;;;;;5034180;28;20661;-85
2022/08/02 05:43:35;;;;;;;1.30;0.43;;;18.20;99.90;;;;;;5030597;28;20214;-85
2022/08/02 05:46:06;;;;;;;1.13;0.30;;;18.20;99.90;;;;;;5032618;28;20190;-88
2022/08/02 05:48:38;;;;;;;0.70;0.40;;;18.10;99.90;;;;;;5033953;28;20191;-84
2022/08/02 05:51:19;;;;;;;1.60;0.57;;;18.00;99.90;;;;;;5031105;28;20191;-84
2022/08/02 05:54:04;;;;;;;1.45;0.40;;;17.90;99.90;;;;;;5032631;28;20522;-86
2022/08/02 05:56:40;;;;;;;3.03;0.43;;;17.90;99.90;;;;;;5032598;28;20186;-86
2022/08/02 05:59:19;;;;;;;1.40;0.50;;;17.90;99.90;;;;;;5030284;28;20693;-84
2022/08/02 06:01:55;;;;;;;3.92;0.90;;;17.90;99.90;;;;;;5033097;28;20197;-83
2022/08/02 06:04:31;;;;;;;1.98;0.60;;;17.70;99.90;;;;;;5032543;28;20225;-85
2022/08/02 06:07:05;;;;;;;1.77;0.90;;;17.60;99.90;;;;;;5033462;28;20206;-85
2022/08/02 06:09:36;;;;;;;1.05;0.60;;;17.50;99.90;;;;;;5031980;28;20193;-84
2022/08/02 06:12:12;;;;;;;0.93;0.60;;;17.50;99.90;;;;;;5032373;28;20190;-84
2022/08/02 06:14:44;;;;;;;2.10;0.80;;;17.40;99.90;;;;;;5029207;28;20671;-83
2022/08/02 06:17:16;;;;;;;1.42;0.73;;;17.30;99.90;;;;;;5033154;28;20187;-86
2022/08/02 06:19:48;;;;;;;3.45;0.60;;;17.30;99.90;;;;;;5029935;28;20559;-84
2022/08/02 06:22:21;;;;;;;5.03;0.75;;;17.20;99.90;;;;;;5032932;28;20707;-82
2022/08/02 06:24:54;;;;;;;2.17;0.70;;;17.20;99.90;;;;;;5033421;28;20219;-83
2022/08/02 06:27:27;;;;;;;1.92;0.68;;;17.10;99.90;;;;;;5032936;28;20209;-83
2022/08/02 06:29:59;;;;;;;3.03;0.98;;;17.00;99.90;;;;;;5032706;28;20210;-84
2022/08/02 06:32:30;;;;;;;4.30;1.10;;;17.10;99.90;;;;;;5032540;28;20195;-83
2022/08/02 06:35:00;;;;;;;1.35;0.88;;;17.00;99.90;;;;;;5032348;28;20423;-83
2022/08/02 06:37:39;;;;;;;2.03;0.77;;;17.00;99.90;;;;;;5031879;28;20226;-83
2022/08/02 06:40:20;;;;;;;3.05;0.95;;;17.00;99.90;;;;;;5029805;28;20198;-81
2022/08/02 06:42:53;;;;;;;2.08;0.88;;;16.80;99.90;;;;;;5032110;28;20556;-84
2022/08/02 06:45:24;;;;;;;4.38;0.90;;;16.80;99.90;;;;;;5032273;28;20194;-85
2022/08/02 06:47:56;;;;;;;1.90;0.82;;;16.70;99.90;;;;;;5031987;28;20649;-83
2022/08/02 06:50:26;;;;;;;1.85;0.93;;;16.70;99.90;;;;;;5031978;28;20193;-83
2022/08/02 06:52:59;;;;;;;4.53;0.85;;;16.70;99.90;;;;;;5032250;28;20190;-84
2022/08/02 06:55:31;;;;;;;2.95;0.88;;;16.60;99.90;;;;;;5032613;28;20200;-81
2022/08/02 06:58:02;;;;;;;5.80;0.98;;;16.50;99.90;;;;;;5032274;28;20233;-83
2022/08/02 07:00:36;;;;;;;2.13;0.70;;;16.50;99.90;;;;;;5030508;28;20259;-83
2022/08/02 07:03:08;;;;;;;5.00;0.70;;;16.40;99.90;;;;;;5032076;28;20249;-83
2022/08/02 07:05:38;;;;;;;3.08;0.70;;;16.30;99.90;;;;;;5032127;28;20186;-82
2022/08/02 07:08:11;;;;;;;1.08;0.70;;;16.20;99.90;;;;;;5029138;28;20186;-83
2022/08/02 07:10:42;;;;;;;1.42;0.70;;;16.10;99.90;;;;;;5028788;28;20233;-82
2022/08/02 07:13:13;;;;;;;3.38;0.80;;;16.00;99.90;;;;;;5030029;28;20649;-82
2022/08/02 07:15:45;;;;;;;1.55;0.55;;;15.90;99.90;;;;;;5027511;28;20210;-81
2022/08/02 07:18:16;;;;;;;2.25;0.82;;;15.70;99.90;;;;;;5031341;28;20550;-82
2022/08/02 07:20:46;;;;;;;3.72;0.60;;;15.70;99.90;;;;;;5034542;28;20209;-81
2022/08/02 07:23:19;;;;;;;1.55;0.60;;;15.50;99.90;;;;;;5035964;28;20206;-82
2022/08/02 07:25:50;;;;;;;1.35;0.63;;;15.50;99.90;;;;;;5036294;28;20186;-82
2022/08/02 07:28:21;;;;;;;3.00;0.50;;;15.40;99.90;;;;;;5035960;28;20198;-84
2022/08/02 07:30:52;;;;;;;1.52;0.50;;;15.40;99.90;;;;;;5035520;28;20202;-82
2022/08/02 07:33:22;;;;;;;1.83;0.57;;;15.20;99.90;;;;;;5035607;28;20206;-83
2022/08/02 07:38:23;;;;;;;3.17;0.88;;;14.90;99.90;;;;;;5086747;22;20241;-78
2022/08/02 07:40:54;;;;;;;3.90;0.82;;;14.80;99.90;;;;;;5052563;28;20279;-79
2022/08/02 07:43:24;;;;;;;2.45;0.90;;;14.70;99.90;;;;;;5054247;28;20213;-79
2022/08/02 07:45:55;;;;;;;1.10;0.90;;;14.70;99.90;;;;;;5046180;28;20906;-77
2022/08/02 07:48:26;;;;;;;2.30;0.80;;;14.60;99.90;;;;;;5054460;28;20716;-79
2022/08/02 07:50:56;;;;;;;0.98;0.60;;;14.60;99.90;;;;;;5054917;28;20193;-81
2022/08/02 07:53:29;;;;;;;1.95;0.90;;;14.50;99.90;;;;;;5047256;28;20216;-78
2022/08/02 07:56:00;;;;;;;1.67;0.80;;;14.40;99.90;;;;;;5055394;28;20189;-77
2022/08/02 07:58:30;;;;;;;4.20;1.00;;;14.20;99.90;;;;;;5054976;28;20190;-78
2022/08/02 08:01:01;;;;;;;3.25;1.08;;;14.10;99.90;;;;;;5054113;28;20193;-79
2022/08/02 08:03:32;;;;;;;2.70;1.20;;;14.00;99.90;;;;;;5054852;28;20239;-78
2022/08/02 08:06:02;;;;;;;3.00;1.83;;;13.90;99.90;;;;;;5054787;28;20201;-78
2022/08/02 08:08:36;;;;;;;2.95;2.10;;;13.90;99.90;;;;;;5055080;28;20186;-77
2022/08/02 08:11:06;;;;;;;4.70;2.28;;;13.80;99.90;;;;;;5055074;28;20200;-77
2022/08/02 08:13:37;;;;;;;3.95;2.05;;;13.80;99.90;;;;;;5054430;28;20193;-79
2022/08/02 08:16:08;;;;;;;2.20;1.63;;;13.80;99.90;;;;;;5052801;28;20192;-78
2022/08/02 08:18:39;;;;;;;5.65;1.60;;;13.80;99.90;;;;;;5035298;28;20201;-78
2022/08/02 08:21:09;;;;;;;7.43;2.05;;;13.80;99.90;;;;;;5035514;28;20202;-78
2022/08/02 08:23:42;;;;;;;2.72;1.70;;;13.70;99.90;;;;;;5045113;28;20661;-79
2022/08/02 08:26:13;;;;;;;3.45;1.48;;;13.60;99.90;;;;;;5054624;28;20193;-78
2022/08/02 08:28:43;;;;;;;2.83;1.50;;;13.60;99.90;;;;;;5049915;28;20676;-76
2022/08/02 08:31:14;;;;;;;2.22;1.30;;;13.50;99.90;;;;;;5052717;28;20190;-78
2022/08/02 08:33:45;;;;;;;4.38;1.90;;;13.30;99.90;;;;;;5054266;28;20193;-78
2022/08/02 08:36:16;;;;;;;2.70;1.67;;;13.30;99.90;;;;;;5045894;28;20222;-78
2022/08/02 08:38:49;;;;;;;3.13;1.50;;;13.20;99.90;;;;;;5040946;28;20588;-78
2022/08/02 08:41:20;;;;;;;3.17;1.33;;;13.20;99.90;;;;;;5040093;28;20240;-78
2022/08/02 08:43:51;;;;;;;3.70;1.65;;;13.10;99.90;;;;;;5035042;28;20218;-79
2022/08/02 08:46:29;;;;;;;5.82;1.67;;;13.10;99.90;;;;;;5037046;28;20194;-78
2022/08/02 08:49:02;;;;;;;3.65;1.50;;;13.10;99.90;;;;;;5053821;28;20192;-78
2022/08/02 08:51:39;;;;;;;2.67;1.73;;;13.10;99.90;;;;;;5038658;28;20197;-79
2022/08/02 08:54:16;;;;;;;3.60;2.15;;;13.10;99.90;;;;;;5054838;28;20272;-78
2022/08/02 08:56:48;;;;;;;3.90;2.28;;;13.10;99.90;;;;;;5038135;28;20194;-78
2022/08/02 08:59:19;;;;;;;4.63;2.15;;;13.00;99.90;;;;;;5054341;28;20191;-78
2022/08/02 09:01:51;;;;;;;3.60;2.00;;;13.00;99.90;;;;;;5055280;28;20198;-79
2022/08/02 09:04:21;;;;;;;3.75;2.13;;;13.00;99.90;;;;;;5038753;28;20221;-77
2022/08/02 09:06:52;;;;;;;3.35;2.40;;;13.00;99.90;;;;;;5034757;28;20665;-78
2022/08/02 09:09:24;;;;;;;3.80;2.30;;;13.00;99.90;;;;;;5034719;28;20194;-77
2022/08/02 09:11:55;;;;;;;6.53;2.60;;;12.90;99.90;;;;;;5034764;28;20198;-78
2022/08/02 09:14:31;;;;;;;6.38;2.97;;;12.90;99.90;;;;;;5035623;28;20209;-78
2022/08/02 09:17:13;;;;;;;9.48;3.80;;;12.80;99.90;;;;;;5054054;28;20189;-77
2022/08/02 09:19:43;;;;;;;25.13;12.07;;;12.80;99.90;;;;;;5054380;28;20276;-78
2022/08/02 09:22:15;;;;;;;47.25;23.73;;;12.70;99.90;;;;;;5054097;28;20197;-78
2022/08/02 09:24:49;;;;;;;10.77;6.28;;;12.70;99.90;;;;;;5054359;28;20626;-77
2022/08/02 09:27:21;;;;;;;5.07;3.10;;;12.70;99.90;;;;;;5054119;28;20232;-77
2022/08/02 09:29:54;;;;;;;5.05;2.83;;;12.60;99.90;;;;;;5054157;28;20196;-78
2022/08/02 09:32:28;;;;;;;10.55;5.68;;;12.60;99.90;;;;;;5037517;28;20591;-78
2022/08/02 09:34:59;;;;;;;9.93;4.40;;;12.50;99.90;;;;;;5041875;28;20190;-77
2022/08/02 09:37:31;;;;;;;7.00;3.60;;;12.50;99.90;;;;;;5033767;28;20237;-77
2022/08/02 09:40:05;;;;;;;7.95;3.60;;;12.50;99.90;;;;;;5034212;28;20664;-79
2022/08/02 09:42:36;;;;;;;6.63;3.08;;;12.50;99.90;;;;;;5028421;28;20197;-78
2022/08/02 09:45:07;;;;;;;8.95;3.13;;;12.50;99.90;;;;;;5049209;28;20224;-77
2022/08/02 09:47:38;;;;;;;5.15;3.00;;;12.50;99.90;;;;;;5052282;28;20198;-78
2022/08/02 09:50:09;;;;;;;8.02;3.08;;;12.40;99.90;;;;;;5014049;28;20202;-77
2022/08/02 09:52:40;;;;;;;5.75;2.92;;;12.40;99.90;;;;;;5013987;28;20198;-78
2022/08/02 09:55:14;;;;;;;5.95;3.00;;;12.40;99.90;;;;;;5019273;28;20186;-78
2022/08/02 09:57:45;;;;;;;7.20;2.85;;;12.40;99.90;;;;;;5033569;28;20189;-78
2022/08/02 10:00:16;;;;;;;6.35;2.70;;;12.40;99.90;;;;;;5033546;28;20208;-76
2022/08/02 10:03:11;;;;;;;5.03;2.90;;;12.40;99.90;;;;;;5033786;28;20199;-77
2022/08/02 10:05:52;;;;;;;4.85;2.88;;;12.40;99.90;;;;;;5033228;28;20600;-77
2022/08/02 10:08:23;;;;;;;5.80;2.88;;;12.40;99.90;;;;;;5033226;28;20590;-77
2022/08/02 10:11:01;;;;;;;4.15;2.72;;;12.40;99.90;;;;;;5033421;28;20194;-78
2022/08/02 10:13:34;;;;;;;6.97;2.85;;;12.40;99.90;;;;;;5033636;28;20221;-77
2022/08/02 10:16:05;;;;;;;6.60;2.88;;;12.30;99.90;;;;;;5033130;28;20190;-77
2022/08/02 10:18:36;;;;;;;4.90;2.75;;;12.30;99.90;;;;;;5033266;28;20194;-76
2022/08/02 10:21:13;;;;;;;6.00;2.60;;;12.30;99.90;;;;;;5033398;28;20195;-77
2022/08/02 10:23:46;;;;;;;8.38;2.75;;;12.20;99.90;;;;;;5032769;28;20205;-77
2022/08/02 10:26:22;;;;;;;4.07;2.20;;;12.20;99.90;;;;;;5033222;28;20202;-77
2022/08/02 10:28:55;;;;;;;4.72;2.50;;;12.20;99.90;;;;;;5041338;28;20189;-76
2022/08/02 10:31:32;;;;;;;3.42;2.35;;;12.20;99.90;;;;;;5049637;28;20207;-77
2022/08/02 10:34:04;;;;;;;3.75;2.00;;;12.20;99.90;;;;;;5052954;28;20204;-75
2022/08/02 10:36:37;;;;;;;6.10;2.40;;;12.20;99.90;;;;;;5039362;28;20838;-75
2022/08/02 10:39:09;;;;;;;7.03;2.92;;;12.20;99.90;;;;;;5032661;28;20194;-77
2022/08/02 10:41:52;;;;;;;4.57;3.08;;;12.20;99.90;;;;;;5032767;28;20190;-75
2022/08/02 10:44:29;;;;;;;3.38;2.70;;;12.20;99.90;;;;;;5045969;28;20247;-75
2022/08/02 10:47:25;;;;;;;4.20;2.65;;;12.20;99.90;;;;;;5052460;28;20197;-75
2022/08/02 10:49:57;;;;;;;2.97;2.30;;;12.20;99.90;;;;;;5052749;28;20194;-76
2022/08/02 10:52:28;;;;;;;3.00;1.90;;;12.20;99.90;;;;;;5052598;28;20197;-74
2022/08/02 10:54:59;;;;;;;2.65;1.73;;;12.20;99.90;;;;;;5052511;28;20190;-74
2022/08/02 10:57:33;;;;;;;3.38;1.80;;;12.10;99.90;;;;;;5036005;28;20217;-76
2022/08/02 11:00:11;;;;;;;6.00;3.08;;;12.10;99.90;;;;;;5032178;28;20237;-77
2022/08/02 11:02:43;;;;;;;5.78;3.20;;;12.10;99.90;;;;;;5042539;28;20568;-76
2022/08/02 11:05:16;;;;;;;4.35;2.50;;;12.10;99.90;;;;;;5052484;28;20221;-76
2022/08/02 11:07:49;;;;;;;6.88;2.92;;;12.10;99.90;;;;;;5052367;28;20288;-77
2022/08/02 11:10:37;;;;;;;3.53;2.20;;;12.10;99.90;;;;;;5052323;28;20189;-74
2022/08/02 11:13:11;;;;;;;2.35;1.85;;;12.10;99.90;;;;;;5047185;28;20552;-76
2022/08/02 11:15:53;;;;;;;2.85;2.10;;;12.10;99.90;;;;;;5032793;28;20186;-77
2022/08/02 11:18:25;;;;;;;3.30;1.90;;;12.10;99.90;;;;;;5012722;28;20728;-76
2022/08/02 11:21:25;;;;;;;3.13;1.88;;;12.10;99.90;;;;;;5012743;28;20191;-74
2022/08/02 11:23:56;;;;;;;3.40;1.75;;;12.10;99.90;;;;;;5012814;28;20222;-75
2022/08/02 11:26:46;;;;;;;3.22;1.65;;;12.10;99.90;;;;;;5028551;28;20198;-76
2022/08/02 11:29:19;;;;;;;2.20;1.45;;;12.10;99.90;;;;;;5032390;28;20630;-75
2022/08/02 11:31:50;;;;;;;3.08;1.80;;;12.00;99.90;;;;;;5032846;28;20607;-76
2022/08/02 11:34:26;;;;;;;5.28;1.63;;;12.00;99.90;;;;;;5037073;28;20198;-75
2022/08/02 11:36:57;;;;;;;2.42;1.48;;;12.00;99.90;;;;;;5031225;28;20739;-75
2022/08/02 11:39:28;;;;;;;4.53;1.30;;;12.00;99.90;;;;;;5016430;28;20610;-75
2022/08/02 11:42:00;;;;;;;5.05;1.40;;;12.00;99.90;;;;;;5032035;28;20193;-75
2022/08/02 11:44:42;;;;;;;1.90;1.30;;;12.00;99.90;;;;;;5032109;28;20225;-75
2022/08/02 11:47:12;;;;;;;1.63;1.25;;;12.00;99.90;;;;;;5031944;28;20212;-76
2022/08/02 11:49:43;;;;;;;2.90;1.23;;;12.10;99.90;;;;;;5032356;28;20256;-75
2022/08/02 11:52:14;;;;;;;3.10;1.30;;;12.10;99.90;;;;;;5033243;28;20232;-75
2022/08/02 11:54:45;;;;;;;1.75;1.25;;;12.00;99.90;;;;;;5032178;28;20195;-76
2022/08/02 11:57:18;;;;;;;2.72;1.30;;;12.10;99.90;;;;;;5031755;28;20191;-76
2022/08/02 11:59:51;;;;;;;2.60;1.50;;;12.00;99.90;;;;;;5032190;28;20201;-75
2022/08/02 12:02:24;;;;;;;3.47;1.77;;;12.10;99.90;;;;;;5031808;28;20211;-76
2022/08/02 12:04:59;;;;;;;2.90;1.70;;;12.00;99.90;;;;;;5031942;28;20222;-75
2022/08/02 12:07:31;;;;;;;3.67;1.60;;;12.00;99.90;;;;;;5035334;28;20197;-76
2022/08/02 12:10:03;;;;;;;1.98;1.40;;;11.90;99.90;;;;;;5035649;28;20194;-76
2022/08/02 12:12:34;;;;;;;2.72;1.65;;;11.90;99.90;;;;;;5035479;28;20717;-76
2022/08/02 12:15:06;;;;;;;2.53;1.60;;;12.00;99.90;;;;;;5035897;28;20206;-75
2022/08/02 12:20:36;;;;;;;4.05;1.60;;;12.00;99.90;;;;;;5035709;28;20193;-76
2022/08/02 12:23:07;;;;;;;5.72;1.75;;;12.00;99.90;;;;;;5035631;28;20205;-76
2022/08/02 12:25:37;;;;;;;5.18;1.70;;;11.90;99.90;;;;;;5035178;28;20792;-77
2022/08/02 12:28:19;;;;;;;3.35;1.67;;;11.90;99.90;;;;;;5035523;28;20205;-76
2022/08/02 12:30:56;;;;;;;6.00;1.80;;;11.90;99.90;;;;;;5035132;28;20204;-76
2022/08/02 12:33:29;;;;;;;4.38;1.83;;;11.90;99.90;;;;;;5035375;28;20208;-75
2022/08/02 12:36:00;;;;;;;3.20;1.60;;;11.80;99.90;;;;;;5029859;28;20222;-75
2022/08/02 12:38:30;;;;;;;3.85;1.70;;;11.80;99.90;;;;;;5034401;28;20234;-77
2022/08/02 12:41:15;;;;;;;5.97;1.60;;;11.80;99.90;;;;;;5034946;28;20681;-76
2022/08/02 12:43:46;;;;;;;3.65;1.67;;;11.80;99.90;;;;;;5035315;28;20210;-76
2022/08/02 12:46:21;;;;;;;2.97;1.75;;;11.80;99.90;;;;;;5034120;28;20681;-74
2022/08/02 12:48:52;;;;;;;3.05;1.40;;;11.80;99.90;;;;;;5034608;28;20190;-74
2022/08/02 12:51:24;;;;;;;3.50;1.60;;;11.90;99.90;;;;;;5034704;28;20209;-74
2022/08/02 12:53:56;;;;;;;2.28;1.40;;;11.80;99.90;;;;;;5019483;28;20194;-75
2022/08/02 12:56:31;;;;;;;2.92;1.40;;;11.80;99.90;;;;;;5033414;28;20198;-75
2022/08/02 12:59:02;;;;;;;5.45;1.58;;;11.80;99.90;;;;;;5034839;28;20193;-75
2022/08/02 13:01:36;;;;;;;4.72;1.52;;;11.80;99.90;;;;;;5034109;28;20190;-75
2022/08/02 13:04:06;;;;;;;3.70;1.50;;;11.80;99.90;;;;;;5033762;28;20661;-74
2022/08/02 13:06:37;;;;;;;2.70;1.40;;;11.70;99.90;;;;;;5034475;28;20581;-74
2022/08/02 13:09:16;;;;;;;2.58;1.25;;;11.70;99.90;;;;;;5034163;28;20186;-75
2022/08/02 13:11:47;;;;;;;1.58;1.17;;;11.70;99.90;;;;;;5033837;28;20194;-74
2022/08/02 13:14:18;;;;;;;1.55;1.30;;;11.70;99.90;;;;;;5034194;28;20198;-75
2022/08/02 13:16:50;;;;;;;2.50;1.38;;;11.70;99.90;;;;;;5033768;28;20201;-75
2022/08/02 13:19:21;;;;;;;1.75;1.23;;;11.70;99.90;;;;;;5033379;28;20186;-75
2022/08/02 13:21:52;;;;;;;2.33;1.27;;;11.80;99.90;;;;;;5034218;28;20187;-75
2022/08/02 13:24:23;;;;;;;2.38;1.13;;;11.70;99.90;;;;;;5036881;28;20186;-74
2022/08/02 13:26:54;;;;;;;1.48;1.23;;;11.70;99.90;;;;;;5034688;28;20677;-77